Hillsboro, Missouri
Current Conditions -  °F | °C
As of 8:12 AM on Saturday 20 Dec 2014 (Local Time) from KSUS Reporting Station
Overcast Overcast  
Wind Chill: 32°   Ceiling: 1400
Heat Index: 36°   Visibility: 7mi
Dew Point: 30°   Wind: 5mph
Humidity: 81%   Direction: 150°SSE
Pressure: 30.27"   Gusts: NA
Location:  38.23°N, 90.56°W
Report Text: KSUS 201412Z 15004KT 7SM OVC014 02/M01 A3027 RMK AO2
Loading
Personal Weather Stations






























Interactive Weather Map New forecast layout! Learn more

10-Day Weather Forecast

Advertisements
Track Severe Weather on mobile